Time;durP1;ratioP1;P1;durP2;ratioP2;P2;SDS_P1;SDS_P2;PMS_P1;PMS_P2;Temp;Humidity;BMP_temperature;BMP_pressure;BME280_temperature;BME280_humidity;BME280_pressure;Samples;Min_cycle;Max_cycle;Signal;HPM_P1;HPM_P2
2022/01/16 00:01:34;;;;;;;20.23;15.40;;;21.20;39.20;;;;;;5068259;28;20155;-61
2022/01/16 00:06:21;;;;;;;18.30;15.50;;;21.20;39.20;;;;;;5072618;28;20060;-60
2022/01/16 00:08:47;;;;;;;17.98;15.32;;;21.20;39.30;;;;;;5063128;28;40707;-60
2022/01/16 00:11:13;;;;;;;19.15;15.73;;;21.20;39.30;;;;;;5071457;28;20133;-61
2022/01/16 00:13:39;;;;;;;17.98;15.18;;;21.10;39.10;;;;;;5066116;28;20068;-60
2022/01/16 00:16:04;;;;;;;18.52;14.15;;;21.10;39.10;;;;;;5068807;28;20041;-61
2022/01/16 00:18:41;;;;;;;17.05;15.23;;;21.10;39.10;;;;;;5067157;28;20553;-60
2022/01/16 00:21:07;;;;;;;16.17;14.27;;;21.10;39.10;;;;;;5069746;28;20059;-60
2022/01/16 00:23:32;;;;;;;17.05;15.30;;;21.00;39.00;;;;;;5065346;28;45714;-60
2022/01/16 00:25:58;;;;;;;18.65;15.32;;;21.00;39.10;;;;;;5070488;28;20070;-61
2022/01/16 00:28:24;;;;;;;18.48;16.00;;;21.00;39.10;;;;;;5068786;28;20064;-60
2022/01/16 00:30:52;;;;;;;16.50;14.75;;;21.00;39.00;;;;;;5066853;28;20059;-60
2022/01/16 00:33:18;;;;;;;17.50;15.30;;;20.90;39.00;;;;;;5066341;28;20063;-61
2022/01/16 00:35:44;;;;;;;17.98;15.50;;;20.90;39.00;;;;;;5064053;28;20068;-60
2022/01/16 00:38:10;;;;;;;19.80;15.98;;;20.90;38.90;;;;;;5062385;28;37492;-60
2022/01/16 00:40:35;;;;;;;19.23;15.65;;;20.90;38.90;;;;;;5073237;28;20036;-60
2022/01/16 00:43:01;;;;;;;18.23;14.73;;;20.90;39.00;;;;;;5071172;28;20048;-60
2022/01/16 00:45:34;;;;;;;17.88;15.05;;;20.80;39.00;;;;;;5073041;28;20040;-60
2022/01/16 00:48:01;;;;;;;17.80;15.48;;;20.80;39.00;;;;;;5069537;28;20048;-59
2022/01/16 00:50:26;;;;;;;19.13;15.20;;;20.80;38.90;;;;;;5071083;28;20036;-60
2022/01/16 00:52:53;;;;;;;18.58;15.98;;;20.80;38.90;;;;;;5066955;28;38031;-60
2022/01/16 00:55:18;;;;;;;17.70;14.85;;;20.80;38.90;;;;;;5071470;28;20052;-61
2022/01/16 00:57:44;;;;;;;17.85;14.80;;;20.70;38.80;;;;;;5069539;28;20047;-60
2022/01/16 01:00:10;;;;;;;16.25;14.55;;;20.70;38.80;;;;;;5069749;28;20050;-60
2022/01/16 01:02:35;;;;;;;17.63;15.40;;;20.70;38.80;;;;;;5066721;28;20040;-60
2022/01/16 01:05:01;;;;;;;19.45;16.05;;;20.70;38.90;;;;;;5068117;28;40697;-61
2022/01/16 01:07:27;;;;;;;18.85;15.30;;;20.60;38.80;;;;;;5071450;28;20048;-61
2022/01/16 01:09:52;;;;;;;19.65;14.85;;;20.60;38.90;;;;;;5072497;28;20150;-60
2022/01/16 01:12:28;;;;;;;18.23;15.40;;;20.60;38.80;;;;;;5070517;28;20480;-60
2022/01/16 01:17:35;;;;;;;21.35;16.67;;;20.60;38.90;;;;;;5070775;28;20860;-61
2022/01/16 01:20:01;;;;;;;17.42;15.40;;;20.60;38.80;;;;;;5068688;28;35796;-60
2022/01/16 01:22:26;;;;;;;19.20;16.08;;;20.50;38.90;;;;;;5071388;28;20582;-61
2022/01/16 01:24:52;;;;;;;19.48;15.60;;;20.50;38.90;;;;;;5073159;28;20393;-60
2022/01/16 01:27:23;;;;;;;24.75;16.55;;;20.50;38.90;;;;;;5066785;28;20109;-60
2022/01/16 01:30:01;;;;;;;22.77;15.90;;;20.50;38.90;;;;;;5073375;28;20070;-61
2022/01/16 01:32:26;;;;;;;28.05;16.95;;;20.50;38.90;;;;;;5069394;28;20045;-60
2022/01/16 01:34:53;;;;;;;21.50;16.45;;;20.40;38.90;;;;;;5071686;28;40987;-61
2022/01/16 01:37:18;;;;;;;27.33;16.05;;;20.40;38.80;;;;;;5068319;28;20089;-60
2022/01/16 01:39:44;;;;;;;27.45;17.35;;;20.40;38.90;;;;;;5073915;28;20520;-60
2022/01/16 01:42:12;;;;;;;25.75;16.88;;;20.40;38.90;;;;;;5067880;28;20044;-60
2022/01/16 01:52:55;;;;;;;24.88;16.95;;;20.30;38.90;;;;;;5068253;28;20048;-60
2022/01/16 01:55:21;;;;;;;25.02;16.95;;;20.30;38.90;;;;;;5072528;28;20101;-60
2022/01/16 01:57:47;;;;;;;18.50;16.50;;;20.30;39.00;;;;;;5068635;28;20032;-61
2022/01/16 02:00:17;;;;;;;25.42;16.88;;;20.30;39.00;;;;;;5069330;28;20554;-60
2022/01/16 02:03:13;;;;;;;24.77;17.38;;;20.30;39.00;;;;;;5065707;28;43528;-61
2022/01/16 02:05:42;;;;;;;21.38;17.10;;;20.30;39.00;;;;;;5069133;28;20044;-60
2022/01/16 02:08:08;;;;;;;26.08;17.98;;;20.30;39.10;;;;;;5069364;28;20036;-60
2022/01/16 02:10:36;;;;;;;23.77;17.88;;;20.20;39.00;;;;;;5070371;28;20201;-60
2022/01/16 02:13:05;;;;;;;22.08;16.67;;;20.20;39.00;;;;;;5068528;28;20076;-59
2022/01/16 02:34:35;;;;;;;20.95;16.58;;;20.20;39.40;;;;;;5071404;28;20044;-61
2022/01/16 02:37:06;;;;;;;20.85;15.82;;;20.20;39.50;;;;;;5067879;28;20388;-59
2022/01/16 02:39:35;;;;;;;;;;;20.20;39.70;;;;;;5068812;28;20044;-59
2022/01/16 02:42:02;;;;;;;21.13;16.15;;;20.10;39.90;;;;;;5068421;28;19920;-60
2022/01/16 02:46:55;;;;;;;20.75;16.27;;;20.10;40.00;;;;;;5065550;28;20036;-60
2022/01/16 02:49:22;;;;;;;19.55;16.48;;;20.10;40.10;;;;;;5068627;28;20028;-60
2022/01/16 02:51:50;;;;;;;20.85;16.27;;;20.10;40.10;;;;;;5068608;28;20044;-60
2022/01/16 02:54:15;;;;;;;21.73;15.95;;;20.10;40.20;;;;;;5069049;28;20044;-60
2022/01/16 02:56:43;;;;;;;21.65;15.75;;;20.10;40.30;;;;;;5069268;28;20115;-59
2022/01/16 02:59:12;;;;;;;21.42;16.38;;;20.10;40.30;;;;;;5068399;28;23296;-60
2022/01/16 03:01:39;;;;;;;18.70;16.40;;;20.10;40.40;;;;;;5058874;28;20052;-60
2022/01/16 03:04:05;;;;;;;21.45;16.23;;;20.10;40.40;;;;;;5065646;28;20044;-60
2022/01/16 03:06:31;;;;;;;21.15;16.30;;;20.10;40.40;;;;;;5065643;28;20082;-60
2022/01/16 03:08:57;;;;;;;21.45;15.45;;;20.00;40.40;;;;;;5067161;28;20364;-60
2022/01/16 03:11:35;;;;;;;21.95;16.48;;;20.00;40.40;;;;;;5066692;28;20040;-59
2022/01/16 03:14:05;;;;;;;19.52;15.65;;;20.00;40.40;;;;;;5069620;28;20075;-60
2022/01/16 03:16:30;;;;;;;19.85;16.35;;;20.00;40.50;;;;;;5069013;28;20057;-60
2022/01/16 03:21:57;;;;;;;20.95;16.40;;;20.00;40.50;;;;;;5065020;28;20039;-60
2022/01/16 03:24:37;;;;;;;21.42;15.90;;;19.90;40.40;;;;;;5066665;28;20055;-61
2022/01/16 03:27:05;;;;;;;20.63;16.00;;;20.00;40.50;;;;;;5067355;28;45380;-60
2022/01/16 03:29:31;;;;;;;19.20;15.65;;;19.90;40.50;;;;;;5070182;28;20169;-60
2022/01/16 03:31:58;;;;;;;19.27;15.85;;;19.90;40.40;;;;;;5069015;28;20151;-59
2022/01/16 03:34:24;;;;;;;18.10;15.05;;;19.90;40.40;;;;;;5068903;28;20514;-59
2022/01/16 03:36:50;;;;;;;20.85;16.05;;;19.90;40.40;;;;;;5068491;28;20077;-60
2022/01/16 03:39:16;;;;;;;20.15;16.27;;;19.90;40.40;;;;;;5067467;28;20036;-61
2022/01/16 03:41:41;;;;;;;18.85;16.23;;;19.90;40.40;;;;;;5068437;28;38133;-61
2022/01/16 03:44:08;;;;;;;19.55;16.02;;;19.90;40.50;;;;;;5065997;28;20136;-60
2022/01/16 03:46:36;;;;;;;21.20;16.25;;;19.90;40.40;;;;;;5073682;28;20040;-60
2022/01/16 03:49:04;;;;;;;20.35;16.60;;;19.90;40.40;;;;;;5066144;28;20178;-60
2022/01/16 03:51:31;;;;;;;18.20;15.15;;;19.80;40.30;;;;;;5071383;28;20365;-60
2022/01/16 03:53:56;;;;;;;18.25;15.18;;;19.80;40.40;;;;;;5063793;28;38113;-59
2022/01/16 03:56:22;;;;;;;18.85;15.02;;;19.80;40.40;;;;;;5070722;28;20416;-60
2022/01/16 03:58:48;;;;;;;18.23;15.68;;;19.80;40.40;;;;;;5065954;28;20044;-60
2022/01/16 04:01:13;;;;;;;19.52;16.00;;;19.80;40.30;;;;;;5068385;28;20065;-60
2022/01/16 04:03:39;;;;;;;19.63;15.45;;;19.80;40.40;;;;;;5066530;28;20561;-60
2022/01/16 04:06:04;;;;;;;19.02;14.88;;;19.80;40.30;;;;;;5070276;28;20575;-61
2022/01/16 04:08:30;;;;;;;18.70;15.10;;;19.80;40.30;;;;;;5065780;28;38534;-60
2022/01/16 04:10:56;;;;;;;18.05;15.32;;;19.80;40.40;;;;;;5068348;28;20041;-60
2022/01/16 04:13:21;;;;;;;18.50;14.90;;;19.80;40.40;;;;;;5066240;28;20352;-59
2022/01/16 04:15:47;;;;;;;19.20;15.40;;;19.80;40.40;;;;;;5071118;28;20040;-60
2022/01/16 04:18:13;;;;;;;19.95;15.57;;;19.70;40.30;;;;;;5070809;28;20036;-61
2022/01/16 04:20:39;;;;;;;20.00;15.52;;;19.70;40.30;;;;;;5071694;28;20040;-59
2022/01/16 04:23:05;;;;;;;18.13;14.52;;;19.70;40.30;;;;;;5068421;28;40778;-60
2022/01/16 04:25:31;;;;;;;20.35;15.25;;;19.70;40.40;;;;;;5069245;28;20032;-60
2022/01/16 04:27:56;;;;;;;17.50;14.13;;;19.70;40.30;;;;;;5073402;28;20039;-61
2022/01/16 04:30:22;;;;;;;18.50;15.43;;;19.70;40.30;;;;;;5070974;28;20045;-61
2022/01/16 04:32:48;;;;;;;17.65;15.13;;;19.70;40.30;;;;;;5070114;28;20035;-61
2022/01/16 04:35:14;;;;;;;20.63;15.52;;;19.70;40.40;;;;;;5070136;28;20086;-60
2022/01/16 04:37:39;;;;;;;19.13;15.25;;;19.70;40.40;;;;;;5069108;28;42754;-61
2022/01/16 04:40:06;;;;;;;18.35;14.93;;;19.70;40.30;;;;;;5073281;28;20043;-59
2022/01/16 04:45:16;;;;;;;18.80;15.15;;;19.60;40.30;;;;;;5068877;28;20036;-59
2022/01/16 04:47:42;;;;;;;18.75;15.80;;;19.60;40.30;;;;;;5072361;28;20044;-60
2022/01/16 04:50:08;;;;;;;18.88;14.80;;;19.60;40.30;;;;;;5066645;28;40642;-60
2022/01/16 04:52:34;;;;;;;17.58;14.48;;;19.60;40.30;;;;;;5072893;28;20086;-59
2022/01/16 04:54:59;;;;;;;18.85;15.30;;;19.60;40.30;;;;;;5067646;28;20189;-60
2022/01/16 04:57:25;;;;;;;18.38;14.73;;;19.60;40.30;;;;;;5072836;28;20055;-60
2022/01/16 04:59:51;;;;;;;17.45;14.70;;;19.60;40.30;;;;;;5069391;28;20067;-59
2022/01/16 05:02:16;;;;;;;18.98;14.95;;;19.60;40.30;;;;;;5068639;28;20162;-60
2022/01/16 05:04:42;;;;;;;18.38;14.65;;;19.60;40.40;;;;;;5063648;28;43320;-59
2022/01/16 05:07:08;;;;;;;17.52;14.15;;;19.60;40.40;;;;;;5069762;28;20048;-60
2022/01/16 05:09:34;;;;;;;17.73;14.30;;;19.60;40.40;;;;;;5070407;28;20051;-60
2022/01/16 05:12:02;;;;;;;18.85;15.00;;;19.50;40.30;;;;;;5068397;28;20083;-59
2022/01/16 05:17:12;;;;;;;17.85;14.38;;;19.50;40.20;;;;;;5071052;28;20051;-60
2022/01/16 05:19:38;;;;;;;20.05;15.13;;;19.50;40.30;;;;;;5065988;28;20835;-59
2022/01/16 05:22:04;;;;;;;18.23;14.18;;;19.50;40.30;;;;;;5066933;28;20036;-60
2022/01/16 05:24:33;;;;;;;17.63;14.82;;;19.50;40.30;;;;;;5070553;28;20041;-60
2022/01/16 05:26:58;;;;;;;18.10;15.07;;;19.50;40.30;;;;;;5069576;28;20097;-60
2022/01/16 05:29:24;;;;;;;19.98;14.93;;;19.50;40.20;;;;;;5072252;28;20041;-60
2022/01/16 05:31:50;;;;;;;16.65;14.27;;;19.50;41.10;;;;;;5068762;28;20040;-61
2022/01/16 05:34:21;;;;;;;18.90;14.13;;;19.50;40.30;;;;;;5067486;28;38172;-60
2022/01/16 05:36:47;;;;;;;17.90;14.32;;;19.50;40.40;;;;;;5069786;28;20123;-60
2022/01/16 05:39:13;;;;;;;17.73;14.23;;;19.50;40.40;;;;;;5071611;28;20115;-60
2022/01/16 05:41:39;;;;;;;19.52;14.77;;;19.50;40.50;;;;;;5070554;28;20028;-60
2022/01/16 05:44:04;;;;;;;18.05;14.30;;;19.50;40.50;;;;;;5074340;28;20461;-60
2022/01/16 05:46:30;;;;;;;17.50;14.20;;;19.60;40.70;;;;;;5068784;28;42942;-60
2022/01/16 05:48:55;;;;;;;17.48;13.88;;;19.60;40.80;;;;;;5070471;28;20075;-61
2022/01/16 05:51:21;;;;;;;17.83;14.38;;;19.60;40.90;;;;;;5069021;28;20051;-60
2022/01/16 05:53:48;;;;;;;17.27;14.20;;;19.60;40.90;;;;;;5073062;28;20511;-60
2022/01/16 05:56:13;;;;;;;19.40;14.43;;;19.60;41.00;;;;;;5070840;28;20050;-60
2022/01/16 05:58:40;;;;;;;18.95;14.85;;;19.60;41.00;;;;;;5073483;28;20487;-60
2022/01/16 06:01:06;;;;;;;18.38;14.90;;;19.60;41.10;;;;;;5065571;28;43209;-60
2022/01/16 06:03:31;;;;;;;19.27;15.52;;;19.60;41.10;;;;;;5071140;28;20044;-60
2022/01/16 06:05:57;;;;;;;19.40;15.65;;;19.70;41.20;;;;;;5068814;28;20338;-60
2022/01/16 06:08:23;;;;;;;18.17;14.13;;;19.70;41.10;;;;;;5069806;28;20089;-60
2022/01/16 06:10:49;;;;;;;19.88;15.25;;;19.70;41.20;;;;;;5072578;28;20037;-60
2022/01/16 06:13:14;;;;;;;19.13;14.85;;;19.70;41.20;;;;;;5070923;28;20039;-60
2022/01/16 06:15:40;;;;;;;19.25;15.27;;;19.70;41.20;;;;;;5069333;28;35443;-60
2022/01/16 06:18:09;;;;;;;20.13;15.30;;;19.70;41.30;;;;;;5068460;28;20090;-61
2022/01/16 06:20:35;;;;;;;17.33;14.32;;;19.70;41.30;;;;;;5071475;28;20048;-60
2022/01/16 06:23:01;;;;;;;17.60;13.90;;;19.80;41.40;;;;;;5066952;28;20067;-61
2022/01/16 06:25:27;;;;;;;18.27;13.63;;;19.80;41.50;;;;;;5071250;28;20095;-61
2022/01/16 06:27:53;;;;;;;17.02;13.65;;;19.80;41.50;;;;;;5067515;28;20149;-60
2022/01/16 06:30:20;;;;;;;18.25;14.02;;;19.80;41.50;;;;;;5068474;28;43058;-60
2022/01/16 06:32:46;;;;;;;17.25;14.48;;;19.80;41.40;;;;;;5067288;28;20040;-60
2022/01/16 06:35:14;;;;;;;19.25;14.38;;;19.80;41.50;;;;;;5067520;28;20041;-60
2022/01/16 06:37:40;;;;;;;17.77;13.93;;;19.80;41.50;;;;;;5070670;28;20056;-59
2022/01/16 06:40:06;;;;;;;18.50;14.65;;;19.80;41.40;;;;;;5070397;28;20032;-59
2022/01/16 06:42:32;;;;;;;19.55;14.48;;;19.80;41.30;;;;;;5067850;28;38192;-60
2022/01/16 06:44:58;;;;;;;20.42;14.55;;;19.80;41.30;;;;;;5069770;28;20852;-60
2022/01/16 06:47:24;;;;;;;16.88;13.48;;;19.80;41.20;;;;;;5070109;28;20066;-60
2022/01/16 06:49:49;;;;;;;17.45;13.82;;;19.90;41.20;;;;;;5068945;28;20048;-60
2022/01/16 06:52:15;;;;;;;19.58;14.18;;;19.90;41.20;;;;;;5066920;28;20043;-60
2022/01/16 06:54:41;;;;;;;18.30;14.45;;;19.90;41.20;;;;;;5070730;28;20044;-60
2022/01/16 06:57:08;;;;;;;19.02;14.55;;;19.90;41.10;;;;;;5063522;28;45529;-60
2022/01/16 06:59:35;;;;;;;18.65;15.20;;;19.90;41.10;;;;;;5068840;28;20036;-60
2022/01/16 07:02:01;;;;;;;18.17;14.82;;;19.90;41.10;;;;;;5069427;28;20101;-59
2022/01/16 07:04:27;;;;;;;18.65;14.00;;;20.00;41.20;;;;;;5069875;28;20508;-61
2022/01/16 07:06:53;;;;;;;17.63;13.57;;;20.00;41.10;;;;;;5070229;28;20098;-60
2022/01/16 07:09:18;;;;;;;17.15;13.10;;;20.00;41.10;;;;;;5068576;28;20060;-60
2022/01/16 07:11:44;;;;;;;18.40;14.05;;;20.00;41.10;;;;;;5068650;28;45638;-60
2022/01/16 07:14:10;;;;;;;18.00;14.25;;;20.00;41.10;;;;;;5068788;28;20155;-60
2022/01/16 07:16:35;;;;;;;18.83;14.15;;;20.00;41.10;;;;;;5070927;28;20040;-60
2022/01/16 07:19:01;;;;;;;16.17;13.20;;;20.00;41.10;;;;;;5063452;28;20031;-60
2022/01/16 07:21:26;;;;;;;19.58;13.82;;;20.00;41.00;;;;;;5072132;28;20380;-59
2022/01/16 07:23:53;;;;;;;17.50;13.45;;;20.00;41.00;;;;;;5066148;28;20044;-61
2022/01/16 07:26:19;;;;;;;18.20;13.55;;;20.10;41.00;;;;;;5068649;28;40875;-60
2022/01/16 07:28:45;;;;;;;18.13;13.65;;;20.10;41.00;;;;;;5067471;28;20039;-60
2022/01/16 07:31:11;;;;;;;17.73;13.40;;;20.10;41.50;;;;;;5070362;28;20051;-60
2022/01/16 07:33:37;;;;;;;15.70;12.77;;;20.10;41.00;;;;;;5070105;28;20137;-60
2022/01/16 07:36:04;;;;;;;16.02;13.05;;;20.10;40.90;;;;;;5067881;28;20044;-59
2022/01/16 07:38:29;;;;;;;16.17;12.68;;;20.10;40.90;;;;;;5068308;28;20087;-60
2022/01/16 07:40:55;;;;;;;18.38;13.88;;;20.20;41.00;;;;;;5065699;28;34962;-61
2022/01/16 07:43:20;;;;;;;16.73;13.43;;;20.20;41.00;;;;;;5068907;28;20064;-60
2022/01/16 07:45:46;;;;;;;17.08;13.63;;;20.20;40.90;;;;;;5068494;28;20052;-61
2022/01/16 07:48:12;;;;;;;16.98;12.95;;;20.20;40.90;;;;;;5068445;28;20091;-60
2022/01/16 07:50:39;;;;;;;17.98;12.82;;;20.20;40.90;;;;;;5069305;28;20407;-60
2022/01/16 07:53:05;;;;;;;16.67;12.75;;;20.20;40.90;;;;;;5065797;28;40256;-60
2022/01/16 07:55:31;;;;;;;16.38;13.32;;;20.20;40.90;;;;;;5070206;28;20086;-60
2022/01/16 07:57:58;;;;;;;19.50;12.68;;;20.20;40.80;;;;;;5067221;28;20044;-60
2022/01/16 08:00:25;;;;;;;15.55;12.35;;;20.30;40.90;;;;;;5065530;28;20037;-61
2022/01/16 08:02:51;;;;;;;15.07;12.27;;;20.30;41.00;;;;;;5068289;28;20535;-61
2022/01/16 08:05:18;;;;;;;15.07;11.60;;;20.30;41.00;;;;;;5067309;28;20059;-60
2022/01/16 08:07:44;;;;;;;15.43;12.65;;;20.30;41.00;;;;;;5065330;28;45782;-61
2022/01/16 08:10:10;;;;;;;15.98;12.30;;;20.30;41.00;;;;;;5070812;28;20048;-60
2022/01/16 08:12:37;;;;;;;16.38;12.63;;;20.30;41.10;;;;;;5067179;28;20034;-61
2022/01/16 08:15:04;;;;;;;13.50;11.98;;;20.40;41.60;;;;;;5065755;28;20086;-60
2022/01/16 08:17:29;;;;;;;15.98;12.82;;;20.40;41.20;;;;;;5069407;28;20032;-60
2022/01/16 08:19:55;;;;;;;15.23;11.82;;;20.40;41.30;;;;;;5065496;28;20038;-59
2022/01/16 08:22:21;;;;;;;16.55;12.43;;;20.40;41.30;;;;;;5065960;28;40318;-60
2022/01/16 08:24:46;;;;;;;14.07;11.45;;;20.40;41.30;;;;;;5066472;28;20056;-60
2022/01/16 08:27:13;;;;;;;13.43;11.35;;;20.40;41.30;;;;;;5068988;28;20285;-60
2022/01/16 08:29:39;;;;;;;14.63;12.10;;;20.40;41.30;;;;;;5067888;28;20043;-61
2022/01/16 08:32:05;;;;;;;15.23;11.63;;;20.50;41.30;;;;;;5069056;28;20036;-61
2022/01/16 08:34:30;;;;;;;13.32;11.00;;;20.40;41.30;;;;;;5068966;28;20056;-61
2022/01/16 08:36:56;;;;;;;15.23;11.80;;;20.50;41.30;;;;;;5063988;28;38609;-59
2022/01/16 08:39:22;;;;;;;12.93;10.77;;;20.50;41.30;;;;;;5068534;28;20032;-60
2022/01/16 08:41:47;;;;;;;15.30;12.00;;;20.50;41.30;;;;;;5070124;28;20214;-60
2022/01/16 08:44:13;;;;;;;13.55;11.00;;;20.50;41.50;;;;;;5071321;28;20036;-60
2022/01/16 08:46:38;;;;;;;14.98;12.27;;;20.50;41.50;;;;;;5067320;28;20114;-60
2022/01/16 08:49:04;;;;;;;13.93;11.00;;;20.50;41.50;;;;;;5068941;28;37709;-60
2022/01/16 08:51:30;;;;;;;14.32;11.40;;;20.60;41.60;;;;;;5063636;28;20062;-60
2022/01/16 08:53:55;;;;;;;12.98;11.23;;;20.50;41.60;;;;;;5067255;28;20096;-59
2022/01/16 08:56:21;;;;;;;13.45;11.40;;;20.50;41.60;;;;;;5066656;28;20036;-60
2022/01/16 08:58:46;;;;;;;14.38;11.15;;;20.60;41.70;;;;;;5071028;28;20043;-60
2022/01/16 09:01:12;;;;;;;14.00;10.93;;;20.60;41.70;;;;;;5072107;28;20102;-60
2022/01/16 09:03:38;;;;;;;12.13;10.50;;;20.60;41.70;;;;;;5070013;28;43047;-61
2022/01/16 09:06:05;;;;;;;12.50;10.73;;;20.60;41.60;;;;;;5074358;28;20531;-60
2022/01/16 09:08:30;;;;;;;13.35;10.30;;;20.60;41.70;;;;;;5069791;28;20407;-60
2022/01/16 09:10:56;;;;;;;13.75;10.90;;;20.60;41.80;;;;;;5068745;28;20048;-60
2022/01/16 09:13:22;;;;;;;13.40;10.25;;;20.70;41.80;;;;;;5071968;28;20745;-60
2022/01/16 09:15:49;;;;;;;11.75;10.50;;;20.70;41.70;;;;;;5071320;28;20610;-60
2022/01/16 09:18:16;;;;;;;10.82;9.73;;;20.70;41.70;;;;;;5070856;28;40751;-60
2022/01/16 09:20:42;;;;;;;12.32;10.40;;;20.70;41.70;;;;;;5067779;28;20036;-60
2022/01/16 09:23:09;;;;;;;12.85;9.55;;;20.70;41.70;;;;;;5072512;28;20106;-60
2022/01/16 09:25:35;;;;;;;10.75;9.00;;;20.70;41.80;;;;;;5067629;28;20051;-60
2022/01/16 09:28:02;;;;;;;11.60;9.93;;;20.70;41.80;;;;;;5072089;28;20033;-60
2022/01/16 09:30:30;;;;;;;10.55;9.45;;;20.70;41.80;;;;;;5069362;28;20102;-59
2022/01/16 09:32:56;;;;;;;12.07;9.75;;;20.70;41.80;;;;;;5069229;28;40880;-60
2022/01/16 09:35:22;;;;;;;10.68;9.05;;;20.80;41.90;;;;;;5071466;28;20054;-60
2022/01/16 09:37:49;;;;;;;10.65;8.50;;;20.80;41.70;;;;;;5068328;28;20076;-60
2022/01/16 09:40:17;;;;;;;12.70;8.65;;;20.80;41.90;;;;;;5072650;28;20403;-60
2022/01/16 09:42:43;;;;;;;10.23;8.63;;;20.80;41.90;;;;;;5067978;28;20491;-60
2022/01/16 09:45:12;;;;;;;9.57;8.10;;;20.80;41.90;;;;;;5073493;28;20066;-60
2022/01/16 09:47:38;;;;;;;10.15;8.00;;;20.90;41.90;;;;;;5067175;28;41343;-60
2022/01/16 09:50:06;;;;;;;10.85;7.80;;;20.90;42.00;;;;;;5071941;28;20036;-60
2022/01/16 09:52:40;;;;;;;10.77;7.35;;;20.90;42.40;;;;;;5069361;28;20079;-60
2022/01/16 09:55:06;;;;;;;8.70;7.22;;;20.90;43.00;;;;;;5069168;28;20407;-60
2022/01/16 09:57:32;;;;;;;9.40;7.65;;;20.90;43.50;;;;;;5070067;28;20433;-60
2022/01/16 09:59:58;;;;;;;9.38;7.35;;;20.90;44.10;;;;;;5068201;28;40486;-59
2022/01/16 10:02:24;;;;;;;12.07;6.97;;;20.90;45.00;;;;;;5070541;28;20165;-60
2022/01/16 10:04:50;;;;;;;9.43;7.38;;;20.90;45.80;;;;;;5069602;28;20068;-61
2022/01/16 10:07:17;;;;;;;10.23;7.85;;;20.90;46.00;;;;;;5067980;28;20044;-60
2022/01/16 10:10:12;;;;;;;11.15;7.45;;;20.90;46.10;;;;;;5069829;28;20051;-60
2022/01/16 10:12:46;;;;;;;9.30;7.47;;;21.00;46.30;;;;;;5067385;28;20081;-60
2022/01/16 10:15:24;;;;;;;8.30;6.90;;;20.90;46.10;;;;;;5068987;28;47952;-59
2022/01/16 10:17:52;;;;;;;13.30;7.43;;;21.00;46.30;;;;;;5064690;28;20047;-60
2022/01/16 10:20:18;;;;;;;10.52;7.57;;;21.00;46.10;;;;;;5070329;28;20449;-60
2022/01/16 10:22:48;;;;;;;9.23;7.28;;;21.00;46.20;;;;;;5063199;28;20458;-59
2022/01/16 10:25:16;;;;;;;8.52;7.47;;;21.00;46.20;;;;;;5067598;28;20036;-60
2022/01/16 10:27:46;;;;;;;11.77;6.40;;;21.00;46.10;;;;;;5062818;28;43213;-60
2022/01/16 10:30:15;;;;;;;8.43;6.60;;;21.10;46.10;;;;;;5070035;28;20040;-61
2022/01/16 10:32:43;;;;;;;7.80;6.50;;;21.10;46.00;;;;;;5064760;28;22041;-60
2022/01/16 10:35:15;;;;;;;12.73;6.93;;;21.10;46.10;;;;;;5067236;28;20059;-59
2022/01/16 10:37:46;;;;;;;8.48;6.35;;;21.10;46.20;;;;;;5068167;28;20615;-59
2022/01/16 10:40:16;;;;;;;6.80;6.07;;;21.10;46.20;;;;;;5066869;28;20161;-60
2022/01/16 10:42:49;;;;;;;6.93;6.23;;;21.10;46.10;;;;;;5065386;28;37911;-59
2022/01/16 10:45:16;;;;;;;8.13;6.43;;;21.20;46.00;;;;;;5064941;28;20123;-60
2022/01/16 10:47:53;;;;;;;7.47;6.30;;;21.10;46.00;;;;;;5066024;28;20044;-60
2022/01/16 10:50:26;;;;;;;8.23;6.78;;;21.10;45.90;;;;;;5065529;28;20039;-60
2022/01/16 10:52:57;;;;;;;8.30;6.30;;;21.10;45.80;;;;;;5063963;28;20044;-59
2022/01/16 10:55:32;;;;;;;8.23;6.03;;;21.10;45.70;;;;;;5068453;28;20119;-61
2022/01/16 10:58:08;;;;;;;7.00;6.15;;;21.10;45.70;;;;;;5066830;28;20063;-59
2022/01/16 11:00:35;;;;;;;6.95;5.82;;;21.20;45.70;;;;;;5068796;28;20048;-59
2022/01/16 11:03:04;;;;;;;7.65;5.75;;;21.20;45.70;;;;;;5056680;28;20169;-60
2022/01/16 11:05:37;;;;;;;7.43;5.90;;;21.10;45.50;;;;;;5066736;28;20387;-61
2022/01/16 11:08:06;;;;;;;8.23;6.32;;;21.20;45.50;;;;;;5066346;28;20432;-62
2022/01/16 11:10:49;;;;;;;7.30;5.50;;;21.20;45.50;;;;;;5063847;28;38067;-60
2022/01/16 11:13:20;;;;;;;7.30;5.63;;;21.20;45.50;;;;;;5066592;28;20132;-60
2022/01/16 11:15:48;;;;;;;5.93;5.32;;;21.20;45.60;;;;;;5063902;28;20285;-60
2022/01/16 11:18:16;;;;;;;8.88;5.78;;;21.20;45.60;;;;;;5065763;28;20047;-60
2022/01/16 11:20:51;;;;;;;5.90;5.18;;;21.20;45.70;;;;;;5057172;28;20411;-60
2022/01/16 11:25:58;;;;;;;5.72;5.20;;;21.20;45.60;;;;;;5062011;28;40427;-61
2022/01/16 11:28:23;;;;;;;7.82;5.70;;;21.20;45.60;;;;;;5060130;28;20032;-61
2022/01/16 11:30:52;;;;;;;6.47;5.28;;;21.20;45.50;;;;;;5063542;28;20032;-59
2022/01/16 11:33:18;;;;;;;7.57;5.78;;;21.20;45.40;;;;;;5062116;28;20063;-61
2022/01/16 11:36:08;;;;;;;7.93;5.78;;;21.20;45.30;;;;;;5065395;28;20075;-59
2022/01/16 11:38:47;;;;;;;5.90;4.75;;;21.30;45.20;;;;;;5061105;28;43225;-60
2022/01/16 11:41:16;;;;;;;5.63;5.03;;;21.20;45.10;;;;;;5062992;28;20032;-59
2022/01/16 11:43:49;;;;;;;7.30;4.97;;;21.20;45.00;;;;;;5065313;28;20047;-60
2022/01/16 11:46:16;;;;;;;6.05;4.85;;;21.20;44.90;;;;;;5060508;28;20396;-59
2022/01/16 11:48:50;;;;;;;6.85;4.88;;;21.20;44.90;;;;;;5065923;28;20041;-60
2022/01/16 11:51:39;;;;;;;6.80;4.20;;;21.20;44.90;;;;;;5065991;28;20039;-59
2022/01/16 11:54:10;;;;;;;4.93;4.50;;;21.20;44.70;;;;;;5058936;28;40153;-59
2022/01/16 11:56:41;;;;;;;5.78;4.72;;;21.20;44.80;;;;;;5064494;28;20353;-58
2022/01/16 11:59:20;;;;;;;8.10;4.68;;;21.20;44.80;;;;;;5063192;28;20036;-60
2022/01/16 12:01:56;;;;;;;5.70;4.35;;;21.20;44.70;;;;;;5068419;28;20330;-59
2022/01/16 12:04:30;;;;;;;7.22;4.68;;;21.20;44.60;;;;;;5062438;28;20053;-60
2022/01/16 12:07:19;;;;;;;7.35;4.50;;;21.20;44.60;;;;;;5061225;28;43970;-59
2022/01/16 12:12:13;;;;;;;11.35;4.03;;;21.20;44.70;;;;;;5054953;28;20540;-59
2022/01/16 12:15:01;;;;;;;4.53;3.92;;;21.20;44.80;;;;;;5064725;28;20498;-58
2022/01/16 12:17:33;;;;;;;5.63;4.07;;;21.20;44.70;;;;;;5065943;28;20056;-59
2022/01/16 12:20:18;;;;;;;6.50;3.97;;;21.20;44.70;;;;;;5061884;28;43574;-59
2022/01/16 12:22:46;;;;;;;4.82;3.90;;;21.20;44.70;;;;;;5064196;28;20032;-59
2022/01/16 12:25:19;;;;;;;6.88;3.78;;;21.10;44.60;;;;;;5062646;28;20891;-58
2022/01/16 12:27:50;;;;;;;4.07;3.40;;;21.10;44.60;;;;;;5067736;28;20040;-59
2022/01/16 12:30:27;;;;;;;3.95;3.50;;;21.20;44.60;;;;;;5064518;28;20530;-58
2022/01/16 12:33:09;;;;;;;4.43;3.63;;;21.20;44.40;;;;;;5068959;28;20044;-59
2022/01/16 12:35:55;;;;;;;3.97;3.50;;;21.20;44.40;;;;;;5064904;28;45754;-57
2022/01/16 12:38:32;;;;;;;5.78;3.58;;;21.20;44.30;;;;;;5067212;28;20047;-60
2022/01/16 12:41:19;;;;;;;3.60;3.30;;;21.20;44.30;;;;;;5065010;28;20384;-57
2022/01/16 12:43:52;;;;;;;3.75;3.45;;;21.20;44.30;;;;;;5066472;28;20059;-59
2022/01/16 12:46:27;;;;;;;4.15;3.53;;;21.10;44.30;;;;;;5067123;28;20111;-60
2022/01/16 12:48:54;;;;;;;4.88;3.60;;;21.10;44.30;;;;;;5064876;28;35559;-59
2022/01/16 12:51:24;;;;;;;6.82;3.50;;;21.10;44.30;;;;;;5066437;28;20080;-58
2022/01/16 12:53:52;;;;;;;4.65;3.28;;;21.10;44.30;;;;;;5065328;28;20270;-60
2022/01/16 12:56:37;;;;;;;6.00;3.42;;;21.10;44.30;;;;;;5043648;28;20040;-58
2022/01/16 12:59:26;;;;;;;4.03;3.38;;;21.10;44.40;;;;;;5065276;28;22106;-59
2022/01/16 13:01:54;;;;;;;7.57;3.28;;;21.10;44.40;;;;;;5059981;28;20048;-60
2022/01/16 13:04:31;;;;;;;3.78;3.38;;;21.10;44.40;;;;;;5064717;28;45638;-58
2022/01/16 13:06:59;;;;;;;4.93;3.25;;;21.10;44.40;;;;;;5066944;28;20467;-60
2022/01/16 13:09:27;;;;;;;3.70;3.15;;;21.10;44.40;;;;;;5065309;28;20040;-59
2022/01/16 13:11:56;;;;;;;5.50;3.30;;;21.10;44.60;;;;;;5067993;28;20961;-60
2022/01/16 13:14:25;;;;;;;4.50;3.15;;;21.10;44.70;;;;;;5069690;28;20049;-59
2022/01/16 13:16:53;;;;;;;7.35;3.30;;;21.10;44.60;;;;;;5070723;28;38197;-58
2022/01/16 13:19:25;;;;;;;6.88;3.03;;;21.10;44.60;;;;;;5070013;28;20036;-59
2022/01/16 13:21:58;;;;;;;5.45;3.30;;;21.10;44.50;;;;;;5067737;28;20029;-60
2022/01/16 13:24:36;;;;;;;5.35;3.15;;;21.10;44.40;;;;;;5071369;28;20090;-59
2022/01/16 13:27:08;;;;;;;5.68;3.92;;;21.10;44.40;;;;;;5065395;28;20300;-58